sensor_id;sensor_type;location;lat;lon;timestamp;P1;durP1;ratioP1;P2;durP2;ratioP2
55633;SDS011;41504;53.162;6.788;2023-04-08T00:00:49;12.35;;;8.55;;
55633;SDS011;41504;53.162;6.788;2023-04-08T00:03:15;11.55;;;8.60;;
55633;SDS011;41504;53.162;6.788;2023-04-08T00:05:41;10.82;;;8.15;;
55633;SDS011;41504;53.162;6.788;2023-04-08T00:08:07;11.00;;;7.85;;
55633;SDS011;41504;53.162;6.788;2023-04-08T00:10:32;11.05;;;8.75;;
55633;SDS011;41504;53.162;6.788;2023-04-08T00:12:58;12.20;;;8.50;;
55633;SDS011;41504;53.162;6.788;2023-04-08T00:15:28;12.50;;;8.43;;
55633;SDS011;41504;53.162;6.788;2023-04-08T00:17:53;11.55;;;8.52;;
55633;SDS011;41504;53.162;6.788;2023-04-08T00:20:21;11.43;;;8.60;;
55633;SDS011;41504;53.162;6.788;2023-04-08T00:22:47;10.65;;;8.27;;
55633;SDS011;41504;53.162;6.788;2023-04-08T00:25:13;10.63;;;8.35;;
55633;SDS011;41504;53.162;6.788;2023-04-08T00:27:40;10.80;;;8.27;;
55633;SDS011;41504;53.162;6.788;2023-04-08T00:30:05;12.18;;;8.90;;
55633;SDS011;41504;53.162;6.788;2023-04-08T00:32:32;14.68;;;9.55;;
55633;SDS011;41504;53.162;6.788;2023-04-08T00:34:58;13.10;;;8.60;;
55633;SDS011;41504;53.162;6.788;2023-04-08T00:37:23;12.18;;;8.52;;
55633;SDS011;41504;53.162;6.788;2023-04-08T00:39:49;11.00;;;8.52;;
55633;SDS011;41504;53.162;6.788;2023-04-08T00:42:17;11.20;;;8.77;;
55633;SDS011;41504;53.162;6.788;2023-04-08T00:44:44;11.68;;;8.50;;
55633;SDS011;41504;53.162;6.788;2023-04-08T00:47:13;12.65;;;9.52;;
55633;SDS011;41504;53.162;6.788;2023-04-08T00:49:40;12.57;;;9.13;;
55633;SDS011;41504;53.162;6.788;2023-04-08T00:52:07;11.32;;;9.07;;
55633;SDS011;41504;53.162;6.788;2023-04-08T00:54:32;13.02;;;9.55;;
55633;SDS011;41504;53.162;6.788;2023-04-08T00:57:01;11.82;;;9.38;;
55633;SDS011;41504;53.162;6.788;2023-04-08T00:59:29;12.77;;;9.10;;
55633;SDS011;41504;53.162;6.788;2023-04-08T01:07:33;12.90;;;9.65;;
55633;SDS011;41504;53.162;6.788;2023-04-08T01:10:02;13.68;;;10.27;;
55633;SDS011;41504;53.162;6.788;2023-04-08T01:15:04;12.05;;;10.10;;
55633;SDS011;41504;53.162;6.788;2023-04-08T01:17:32;13.57;;;10.15;;
55633;SDS011;41504;53.162;6.788;2023-04-08T01:20:01;12.88;;;10.48;;
55633;SDS011;41504;53.162;6.788;2023-04-08T01:25:05;13.73;;;10.30;;
55633;SDS011;41504;53.162;6.788;2023-04-08T01:27:36;15.57;;;11.18;;
55633;SDS011;41504;53.162;6.788;2023-04-08T01:30:03;14.18;;;10.77;;
55633;SDS011;41504;53.162;6.788;2023-04-08T01:32:31;15.35;;;11.27;;
55633;SDS011;41504;53.162;6.788;2023-04-08T01:34:59;14.50;;;10.93;;
55633;SDS011;41504;53.162;6.788;2023-04-08T01:37:26;14.73;;;11.40;;
55633;SDS011;41504;53.162;6.788;2023-04-08T01:39:54;13.98;;;10.75;;
55633;SDS011;41504;53.162;6.788;2023-04-08T01:42:21;14.65;;;11.75;;
55633;SDS011;41504;53.162;6.788;2023-04-08T01:44:50;14.23;;;11.73;;
55633;SDS011;41504;53.162;6.788;2023-04-08T01:47:20;14.55;;;11.65;;
55633;SDS011;41504;53.162;6.788;2023-04-08T01:49:46;16.02;;;12.30;;
55633;SDS011;41504;53.162;6.788;2023-04-08T01:52:13;15.00;;;11.52;;
55633;SDS011;41504;53.162;6.788;2023-04-08T01:54:42;15.68;;;11.60;;
55633;SDS011;41504;53.162;6.788;2023-04-08T01:57:08;15.07;;;12.13;;
55633;SDS011;41504;53.162;6.788;2023-04-08T01:59:37;16.52;;;11.82;;
55633;SDS011;41504;53.162;6.788;2023-04-08T02:02:04;14.90;;;11.98;;
55633;SDS011;41504;53.162;6.788;2023-04-08T02:04:33;14.90;;;12.57;;
55633;SDS011;41504;53.162;6.788;2023-04-08T02:07:00;16.27;;;11.73;;
55633;SDS011;41504;53.162;6.788;2023-04-08T02:09:26;17.20;;;13.02;;
55633;SDS011;41504;53.162;6.788;2023-04-08T02:11:52;15.63;;;12.07;;
55633;SDS011;41504;53.162;6.788;2023-04-08T02:14:18;15.82;;;12.27;;
55633;SDS011;41504;53.162;6.788;2023-04-08T02:19:51;16.90;;;13.07;;
55633;SDS011;41504;53.162;6.788;2023-04-08T02:25:12;17.48;;;13.55;;
55633;SDS011;41504;53.162;6.788;2023-04-08T02:27:40;19.10;;;14.05;;
55633;SDS011;41504;53.162;6.788;2023-04-08T02:30:08;17.88;;;13.45;;
55633;SDS011;41504;53.162;6.788;2023-04-08T02:32:35;17.60;;;13.38;;
55633;SDS011;41504;53.162;6.788;2023-04-08T02:35:02;17.40;;;13.63;;
55633;SDS011;41504;53.162;6.788;2023-04-08T02:37:32;17.65;;;14.00;;
55633;SDS011;41504;53.162;6.788;2023-04-08T02:39:58;16.77;;;13.05;;
55633;SDS011;41504;53.162;6.788;2023-04-08T02:42:24;16.83;;;12.88;;
55633;SDS011;41504;53.162;6.788;2023-04-08T02:44:50;15.40;;;12.85;;
55633;SDS011;41504;53.162;6.788;2023-04-08T02:47:16;17.30;;;13.07;;
55633;SDS011;41504;53.162;6.788;2023-04-08T02:49:42;19.83;;;13.77;;
55633;SDS011;41504;53.162;6.788;2023-04-08T02:52:07;15.40;;;13.45;;
55633;SDS011;41504;53.162;6.788;2023-04-08T02:54:33;16.65;;;13.60;;
55633;SDS011;41504;53.162;6.788;2023-04-08T02:56:59;16.80;;;13.82;;
55633;SDS011;41504;53.162;6.788;2023-04-08T02:59:25;18.42;;;13.45;;
55633;SDS011;41504;53.162;6.788;2023-04-08T03:01:50;18.65;;;13.13;;
55633;SDS011;41504;53.162;6.788;2023-04-08T03:04:16;17.85;;;13.55;;
55633;SDS011;41504;53.162;6.788;2023-04-08T03:06:42;19.67;;;14.15;;
55633;SDS011;41504;53.162;6.788;2023-04-08T03:09:07;17.70;;;14.63;;
55633;SDS011;41504;53.162;6.788;2023-04-08T03:11:33;16.15;;;13.68;;
55633;SDS011;41504;53.162;6.788;2023-04-08T03:13:59;17.77;;;13.82;;
55633;SDS011;41504;53.162;6.788;2023-04-08T03:16:25;18.98;;;14.63;;
55633;SDS011;41504;53.162;6.788;2023-04-08T03:18:51;18.60;;;13.95;;
55633;SDS011;41504;53.162;6.788;2023-04-08T03:21:17;19.38;;;14.55;;
55633;SDS011;41504;53.162;6.788;2023-04-08T03:23:43;18.65;;;14.77;;
55633;SDS011;41504;53.162;6.788;2023-04-08T03:26:09;17.83;;;14.18;;
55633;SDS011;41504;53.162;6.788;2023-04-08T03:28:34;18.67;;;13.95;;
55633;SDS011;41504;53.162;6.788;2023-04-08T03:31:01;19.15;;;14.98;;
55633;SDS011;41504;53.162;6.788;2023-04-08T03:33:30;19.73;;;14.32;;
55633;SDS011;41504;53.162;6.788;2023-04-08T03:35:56;18.38;;;14.07;;
55633;SDS011;41504;53.162;6.788;2023-04-08T03:38:22;18.55;;;15.20;;
55633;SDS011;41504;53.162;6.788;2023-04-08T03:40:48;18.52;;;14.18;;
55633;SDS011;41504;53.162;6.788;2023-04-08T03:43:13;20.65;;;14.90;;
55633;SDS011;41504;53.162;6.788;2023-04-08T03:45:39;18.35;;;14.68;;
55633;SDS011;41504;53.162;6.788;2023-04-08T03:48:05;19.63;;;15.15;;
55633;SDS011;41504;53.162;6.788;2023-04-08T03:50:31;19.63;;;15.50;;
55633;SDS011;41504;53.162;6.788;2023-04-08T03:52:57;19.60;;;14.85;;
55633;SDS011;41504;53.162;6.788;2023-04-08T03:55:23;19.60;;;15.30;;
55633;SDS011;41504;53.162;6.788;2023-04-08T03:57:48;19.73;;;14.93;;
55633;SDS011;41504;53.162;6.788;2023-04-08T04:00:14;19.70;;;15.35;;
55633;SDS011;41504;53.162;6.788;2023-04-08T04:02:40;21.27;;;15.95;;
55633;SDS011;41504;53.162;6.788;2023-04-08T04:05:06;20.55;;;14.82;;
55633;SDS011;41504;53.162;6.788;2023-04-08T04:07:32;21.33;;;15.52;;
55633;SDS011;41504;53.162;6.788;2023-04-08T04:09:58;23.27;;;15.68;;
55633;SDS011;41504;53.162;6.788;2023-04-08T04:12:24;19.98;;;15.38;;
55633;SDS011;41504;53.162;6.788;2023-04-08T04:14:50;21.08;;;15.38;;
55633;SDS011;41504;53.162;6.788;2023-04-08T04:17:16;20.45;;;15.55;;
55633;SDS011;41504;53.162;6.788;2023-04-08T04:19:42;20.90;;;15.30;;
55633;SDS011;41504;53.162;6.788;2023-04-08T04:22:07;19.75;;;14.52;;
55633;SDS011;41504;53.162;6.788;2023-04-08T04:24:33;20.88;;;16.05;;
55633;SDS011;41504;53.162;6.788;2023-04-08T04:26:59;21.70;;;16.30;;
55633;SDS011;41504;53.162;6.788;2023-04-08T04:29:24;22.23;;;15.80;;
55633;SDS011;41504;53.162;6.788;2023-04-08T04:31:50;19.67;;;15.75;;
55633;SDS011;41504;53.162;6.788;2023-04-08T04:34:16;22.30;;;15.70;;
55633;SDS011;41504;53.162;6.788;2023-04-08T04:36:42;21.90;;;15.57;;
55633;SDS011;41504;53.162;6.788;2023-04-08T04:39:07;21.15;;;15.80;;
55633;SDS011;41504;53.162;6.788;2023-04-08T04:41:33;21.40;;;16.48;;
55633;SDS011;41504;53.162;6.788;2023-04-08T04:44:03;21.67;;;15.80;;
55633;SDS011;41504;53.162;6.788;2023-04-08T04:46:28;21.60;;;15.45;;
55633;SDS011;41504;53.162;6.788;2023-04-08T04:48:54;23.15;;;17.02;;
55633;SDS011;41504;53.162;6.788;2023-04-08T04:51:20;22.70;;;16.63;;
55633;SDS011;41504;53.162;6.788;2023-04-08T04:53:46;23.52;;;17.17;;
55633;SDS011;41504;53.162;6.788;2023-04-08T04:56:13;24.20;;;17.50;;
55633;SDS011;41504;53.162;6.788;2023-04-08T04:58:38;22.65;;;17.38;;
55633;SDS011;41504;53.162;6.788;2023-04-08T05:01:04;24.48;;;17.98;;
55633;SDS011;41504;53.162;6.788;2023-04-08T05:03:30;22.80;;;16.65;;
55633;SDS011;41504;53.162;6.788;2023-04-08T05:05:56;23.48;;;17.65;;
55633;SDS011;41504;53.162;6.788;2023-04-08T05:08:21;22.08;;;16.73;;
55633;SDS011;41504;53.162;6.788;2023-04-08T05:10:47;26.88;;;19.35;;
55633;SDS011;41504;53.162;6.788;2023-04-08T05:13:14;24.55;;;18.38;;
55633;SDS011;41504;53.162;6.788;2023-04-08T05:15:41;24.83;;;18.58;;
55633;SDS011;41504;53.162;6.788;2023-04-08T05:18:07;26.70;;;19.48;;
55633;SDS011;41504;53.162;6.788;2023-04-08T05:20:33;25.25;;;19.13;;
55633;SDS011;41504;53.162;6.788;2023-04-08T05:22:59;27.27;;;19.33;;
55633;SDS011;41504;53.162;6.788;2023-04-08T05:25:25;27.05;;;20.33;;
55633;SDS011;41504;53.162;6.788;2023-04-08T05:27:50;23.80;;;18.50;;
55633;SDS011;41504;53.162;6.788;2023-04-08T05:30:17;25.52;;;18.98;;
55633;SDS011;41504;53.162;6.788;2023-04-08T05:32:42;24.83;;;18.58;;
55633;SDS011;41504;53.162;6.788;2023-04-08T05:35:08;22.73;;;17.45;;
55633;SDS011;41504;53.162;6.788;2023-04-08T05:37:34;25.80;;;18.20;;
55633;SDS011;41504;53.162;6.788;2023-04-08T05:40:00;24.35;;;17.98;;
55633;SDS011;41504;53.162;6.788;2023-04-08T05:42:26;25.90;;;18.65;;
55633;SDS011;41504;53.162;6.788;2023-04-08T05:44:51;26.98;;;18.85;;
55633;SDS011;41504;53.162;6.788;2023-04-08T05:47:17;24.58;;;18.58;;
55633;SDS011;41504;53.162;6.788;2023-04-08T05:49:43;24.15;;;17.92;;
55633;SDS011;41504;53.162;6.788;2023-04-08T05:52:08;25.65;;;19.05;;
55633;SDS011;41504;53.162;6.788;2023-04-08T05:54:34;25.77;;;18.50;;
55633;SDS011;41504;53.162;6.788;2023-04-08T05:57:00;27.60;;;19.73;;
55633;SDS011;41504;53.162;6.788;2023-04-08T05:59:26;26.70;;;19.95;;
55633;SDS011;41504;53.162;6.788;2023-04-08T06:01:51;25.35;;;18.92;;
55633;SDS011;41504;53.162;6.788;2023-04-08T06:04:19;27.85;;;19.85;;
55633;SDS011;41504;53.162;6.788;2023-04-08T06:06:45;25.85;;;18.60;;
55633;SDS011;41504;53.162;6.788;2023-04-08T06:09:10;26.90;;;18.40;;
55633;SDS011;41504;53.162;6.788;2023-04-08T06:11:36;24.58;;;18.55;;
55633;SDS011;41504;53.162;6.788;2023-04-08T06:14:02;27.17;;;19.77;;
55633;SDS011;41504;53.162;6.788;2023-04-08T06:16:28;25.45;;;17.90;;
55633;SDS011;41504;53.162;6.788;2023-04-08T06:18:53;24.38;;;18.75;;
55633;SDS011;41504;53.162;6.788;2023-04-08T06:21:19;26.30;;;18.52;;
55633;SDS011;41504;53.162;6.788;2023-04-08T06:23:45;25.42;;;18.10;;
55633;SDS011;41504;53.162;6.788;2023-04-08T06:26:11;28.58;;;19.50;;
55633;SDS011;41504;53.162;6.788;2023-04-08T06:28:37;24.95;;;18.48;;
55633;SDS011;41504;53.162;6.788;2023-04-08T06:31:03;24.67;;;18.38;;
55633;SDS011;41504;53.162;6.788;2023-04-08T06:33:29;24.13;;;18.38;;
55633;SDS011;41504;53.162;6.788;2023-04-08T06:36:01;24.98;;;18.90;;
55633;SDS011;41504;53.162;6.788;2023-04-08T06:38:31;26.10;;;18.42;;
55633;SDS011;41504;53.162;6.788;2023-04-08T06:43:29;24.38;;;18.23;;
55633;SDS011;41504;53.162;6.788;2023-04-08T06:45:55;25.42;;;18.17;;
55633;SDS011;41504;53.162;6.788;2023-04-08T06:48:22;25.25;;;17.33;;
55633;SDS011;41504;53.162;6.788;2023-04-08T06:50:52;23.85;;;17.52;;
55633;SDS011;41504;53.162;6.788;2023-04-08T06:53:22;23.23;;;16.33;;
55633;SDS011;41504;53.162;6.788;2023-04-08T06:55:48;22.70;;;17.27;;
55633;SDS011;41504;53.162;6.788;2023-04-08T06:58:14;24.80;;;16.75;;
55633;SDS011;41504;53.162;6.788;2023-04-08T07:00:43;22.98;;;16.38;;
55633;SDS011;41504;53.162;6.788;2023-04-08T07:03:08;20.98;;;16.00;;
55633;SDS011;41504;53.162;6.788;2023-04-08T07:05:35;21.13;;;15.52;;
55633;SDS011;41504;53.162;6.788;2023-04-08T07:08:02;21.00;;;15.20;;
55633;SDS011;41504;53.162;6.788;2023-04-08T07:10:28;20.08;;;14.50;;
55633;SDS011;41504;53.162;6.788;2023-04-08T07:12:54;20.42;;;14.98;;
55633;SDS011;41504;53.162;6.788;2023-04-08T07:15:20;20.90;;;15.73;;
55633;SDS011;41504;53.162;6.788;2023-04-08T07:17:46;20.58;;;14.20;;
55633;SDS011;41504;53.162;6.788;2023-04-08T07:20:12;19.70;;;14.45;;
55633;SDS011;41504;53.162;6.788;2023-04-08T07:22:41;21.45;;;14.65;;
55633;SDS011;41504;53.162;6.788;2023-04-08T07:25:06;20.73;;;14.32;;
55633;SDS011;41504;53.162;6.788;2023-04-08T07:27:33;20.98;;;14.95;;
55633;SDS011;41504;53.162;6.788;2023-04-08T07:29:59;19.67;;;14.40;;
55633;SDS011;41504;53.162;6.788;2023-04-08T07:32:25;24.00;;;15.95;;
55633;SDS011;41504;53.162;6.788;2023-04-08T07:34:51;19.77;;;14.63;;
55633;SDS011;41504;53.162;6.788;2023-04-08T07:37:17;18.55;;;13.50;;
55633;SDS011;41504;53.162;6.788;2023-04-08T07:39:43;19.33;;;13.00;;
55633;SDS011;41504;53.162;6.788;2023-04-08T07:42:08;18.98;;;13.52;;
55633;SDS011;41504;53.162;6.788;2023-04-08T07:44:34;18.50;;;13.10;;
55633;SDS011;41504;53.162;6.788;2023-04-08T07:47:00;20.27;;;14.18;;
55633;SDS011;41504;53.162;6.788;2023-04-08T07:49:26;18.92;;;13.25;;
55633;SDS011;41504;53.162;6.788;2023-04-08T07:51:51;20.60;;;14.63;;
55633;SDS011;41504;53.162;6.788;2023-04-08T07:54:17;18.95;;;13.18;;
55633;SDS011;41504;53.162;6.788;2023-04-08T07:56:43;21.30;;;14.43;;
55633;SDS011;41504;53.162;6.788;2023-04-08T07:59:09;20.88;;;14.98;;
55633;SDS011;41504;53.162;6.788;2023-04-08T08:01:35;19.83;;;13.93;;
55633;SDS011;41504;53.162;6.788;2023-04-08T08:04:01;20.63;;;14.18;;
55633;SDS011;41504;53.162;6.788;2023-04-08T08:06:28;19.15;;;13.88;;
55633;SDS011;41504;53.162;6.788;2023-04-08T08:08:56;19.33;;;13.40;;
55633;SDS011;41504;53.162;6.788;2023-04-08T08:11:22;19.98;;;14.35;;
55633;SDS011;41504;53.162;6.788;2023-04-08T08:13:47;19.02;;;13.60;;
55633;SDS011;41504;53.162;6.788;2023-04-08T08:16:13;20.38;;;13.80;;
55633;SDS011;41504;53.162;6.788;2023-04-08T08:18:39;19.08;;;13.18;;
55633;SDS011;41504;53.162;6.788;2023-04-08T08:21:05;19.88;;;14.32;;
55633;SDS011;41504;53.162;6.788;2023-04-08T08:23:31;20.63;;;14.85;;
55633;SDS011;41504;53.162;6.788;2023-04-08T08:25:58;21.80;;;15.13;;
55633;SDS011;41504;53.162;6.788;2023-04-08T08:28:27;18.35;;;14.20;;
55633;SDS011;41504;53.162;6.788;2023-04-08T08:30:53;19.00;;;13.90;;
55633;SDS011;41504;53.162;6.788;2023-04-08T08:33:19;18.25;;;14.13;;
55633;SDS011;41504;53.162;6.788;2023-04-08T08:35:44;20.80;;;14.82;;
55633;SDS011;41504;53.162;6.788;2023-04-08T08:38:10;20.65;;;15.30;;
55633;SDS011;41504;53.162;6.788;2023-04-08T08:40:37;19.75;;;14.27;;
55633;SDS011;41504;53.162;6.788;2023-04-08T08:43:03;19.48;;;12.77;;
55633;SDS011;41504;53.162;6.788;2023-04-08T08:45:29;18.90;;;13.68;;
55633;SDS011;41504;53.162;6.788;2023-04-08T08:47:55;20.13;;;13.65;;
55633;SDS011;41504;53.162;6.788;2023-04-08T08:50:21;17.33;;;12.93;;
55633;SDS011;41504;53.162;6.788;2023-04-08T08:52:48;19.15;;;13.25;;
55633;SDS011;41504;53.162;6.788;2023-04-08T08:55:14;18.42;;;13.00;;
55633;SDS011;41504;53.162;6.788;2023-04-08T08:57:45;18.30;;;13.60;;
55633;SDS011;41504;53.162;6.788;2023-04-08T09:00:12;18.02;;;12.75;;
55633;SDS011;41504;53.162;6.788;2023-04-08T09:02:43;15.70;;;11.02;;
55633;SDS011;41504;53.162;6.788;2023-04-08T09:05:09;15.75;;;11.50;;
55633;SDS011;41504;53.162;6.788;2023-04-08T09:07:35;16.63;;;11.50;;
55633;SDS011;41504;53.162;6.788;2023-04-08T09:10:01;15.60;;;9.98;;
55633;SDS011;41504;53.162;6.788;2023-04-08T09:12:28;16.23;;;10.50;;
55633;SDS011;41504;53.162;6.788;2023-04-08T09:15:08;15.80;;;10.43;;
55633;SDS011;41504;53.162;6.788;2023-04-08T09:17:38;16.90;;;10.13;;
55633;SDS011;41504;53.162;6.788;2023-04-08T09:20:11;16.17;;;10.63;;
55633;SDS011;41504;53.162;6.788;2023-04-08T09:25:27;12.88;;;8.77;;
55633;SDS011;41504;53.162;6.788;2023-04-08T09:27:57;14.85;;;9.75;;
55633;SDS011;41504;53.162;6.788;2023-04-08T09:30:24;15.32;;;10.43;;
55633;SDS011;41504;53.162;6.788;2023-04-08T09:32:55;15.32;;;10.18;;
55633;SDS011;41504;53.162;6.788;2023-04-08T09:35:22;13.27;;;9.32;;
55633;SDS011;41504;53.162;6.788;2023-04-08T09:37:49;15.85;;;9.75;;
55633;SDS011;41504;53.162;6.788;2023-04-08T09:40:15;14.82;;;9.55;;
55633;SDS011;41504;53.162;6.788;2023-04-08T09:42:46;16.23;;;10.23;;
55633;SDS011;41504;53.162;6.788;2023-04-08T09:45:16;15.93;;;10.00;;
55633;SDS011;41504;53.162;6.788;2023-04-08T09:50:53;14.60;;;9.70;;
55633;SDS011;41504;53.162;6.788;2023-04-08T09:55:58;15.30;;;10.13;;
55633;SDS011;41504;53.162;6.788;2023-04-08T09:58:32;13.95;;;9.57;;
55633;SDS011;41504;53.162;6.788;2023-04-08T10:01:03;14.10;;;9.65;;
55633;SDS011;41504;53.162;6.788;2023-04-08T10:03:33;14.98;;;10.23;;
55633;SDS011;41504;53.162;6.788;2023-04-08T10:06:04;17.42;;;10.77;;
55633;SDS011;41504;53.162;6.788;2023-04-08T10:08:32;17.25;;;11.32;;
55633;SDS011;41504;53.162;6.788;2023-04-08T10:10:59;17.23;;;11.57;;
55633;SDS011;41504;53.162;6.788;2023-04-08T10:13:25;15.30;;;10.75;;
55633;SDS011;41504;53.162;6.788;2023-04-08T10:18:40;17.92;;;11.05;;
55633;SDS011;41504;53.162;6.788;2023-04-08T10:21:29;17.27;;;11.40;;
55633;SDS011;41504;53.162;6.788;2023-04-08T10:23:59;19.23;;;11.90;;
55633;SDS011;41504;53.162;6.788;2023-04-08T10:26:34;19.58;;;12.32;;
55633;SDS011;41504;53.162;6.788;2023-04-08T10:31:56;20.42;;;12.80;;
55633;SDS011;41504;53.162;6.788;2023-04-08T10:34:23;18.98;;;12.50;;
55633;SDS011;41504;53.162;6.788;2023-04-08T10:36:50;21.40;;;14.23;;
55633;SDS011;41504;53.162;6.788;2023-04-08T10:39:17;24.63;;;15.18;;
55633;SDS011;41504;53.162;6.788;2023-04-08T10:41:46;22.95;;;15.70;;
55633;SDS011;41504;53.162;6.788;2023-04-08T10:44:31;26.02;;;15.93;;
55633;SDS011;41504;53.162;6.788;2023-04-08T10:46:57;24.27;;;16.17;;
55633;SDS011;41504;53.162;6.788;2023-04-08T10:49:26;24.92;;;16.13;;
55633;SDS011;41504;53.162;6.788;2023-04-08T10:51:57;26.30;;;17.05;;
55633;SDS011;41504;53.162;6.788;2023-04-08T10:54:23;32.55;;;19.85;;
55633;SDS011;41504;53.162;6.788;2023-04-08T10:56:49;28.00;;;19.55;;
55633;SDS011;41504;53.162;6.788;2023-04-08T10:59:38;30.67;;;19.08;;
55633;SDS011;41504;53.162;6.788;2023-04-08T11:02:03;32.17;;;19.65;;
55633;SDS011;41504;53.162;6.788;2023-04-08T11:04:29;33.47;;;20.35;;
55633;SDS011;41504;53.162;6.788;2023-04-08T11:06:55;27.48;;;17.65;;
55633;SDS011;41504;53.162;6.788;2023-04-08T11:09:22;30.80;;;19.13;;
55633;SDS011;41504;53.162;6.788;2023-04-08T11:11:47;28.27;;;18.17;;
55633;SDS011;41504;53.162;6.788;2023-04-08T11:14:13;31.25;;;18.75;;
55633;SDS011;41504;53.162;6.788;2023-04-08T11:16:41;32.88;;;21.40;;
55633;SDS011;41504;53.162;6.788;2023-04-08T11:19:07;34.33;;;22.25;;
55633;SDS011;41504;53.162;6.788;2023-04-08T11:21:36;33.65;;;22.00;;
55633;SDS011;41504;53.162;6.788;2023-04-08T11:24:09;31.58;;;20.95;;
55633;SDS011;41504;53.162;6.788;2023-04-08T11:26:40;32.88;;;20.73;;
55633;SDS011;41504;53.162;6.788;2023-04-08T11:29:08;31.80;;;19.55;;
55633;SDS011;41504;53.162;6.788;2023-04-08T11:31:38;34.05;;;20.77;;
55633;SDS011;41504;53.162;6.788;2023-04-08T11:34:04;26.90;;;17.20;;
55633;SDS011;41504;53.162;6.788;2023-04-08T11:36:31;28.10;;;17.00;;
55633;SDS011;41504;53.162;6.788;2023-04-08T11:38:59;23.13;;;16.92;;
55633;SDS011;41504;53.162;6.788;2023-04-08T11:41:34;24.42;;;15.45;;
55633;SDS011;41504;53.162;6.788;2023-04-08T11:44:01;24.05;;;16.08;;
55633;SDS011;41504;53.162;6.788;2023-04-08T11:46:27;24.52;;;15.95;;
55633;SDS011;41504;53.162;6.788;2023-04-08T11:48:56;25.30;;;15.90;;
55633;SDS011;41504;53.162;6.788;2023-04-08T11:51:27;26.27;;;17.60;;
55633;SDS011;41504;53.162;6.788;2023-04-08T11:53:53;25.77;;;16.98;;
55633;SDS011;41504;53.162;6.788;2023-04-08T11:56:19;28.00;;;18.25;;
55633;SDS011;41504;53.162;6.788;2023-04-08T11:58:47;26.65;;;18.02;;
55633;SDS011;41504;53.162;6.788;2023-04-08T12:01:13;30.20;;;18.83;;
55633;SDS011;41504;53.162;6.788;2023-04-08T12:03:53;24.98;;;16.35;;
55633;SDS011;41504;53.162;6.788;2023-04-08T12:06:22;24.92;;;16.65;;
55633;SDS011;41504;53.162;6.788;2023-04-08T12:08:49;27.00;;;17.48;;
55633;SDS011;41504;53.162;6.788;2023-04-08T12:11:14;27.73;;;16.55;;
55633;SDS011;41504;53.162;6.788;2023-04-08T12:13:40;24.90;;;15.90;;
55633;SDS011;41504;53.162;6.788;2023-04-08T12:16:06;27.10;;;17.15;;
55633;SDS011;41504;53.162;6.788;2023-04-08T12:18:32;25.25;;;16.50;;
55633;SDS011;41504;53.162;6.788;2023-04-08T12:20:58;25.80;;;16.65;;
55633;SDS011;41504;53.162;6.788;2023-04-08T12:23:23;25.30;;;16.67;;
55633;SDS011;41504;53.162;6.788;2023-04-08T12:25:49;25.65;;;17.23;;
55633;SDS011;41504;53.162;6.788;2023-04-08T12:28:15;25.75;;;17.02;;
55633;SDS011;41504;53.162;6.788;2023-04-08T12:30:41;23.15;;;16.27;;
55633;SDS011;41504;53.162;6.788;2023-04-08T12:33:06;27.45;;;17.73;;
55633;SDS011;41504;53.162;6.788;2023-04-08T12:35:32;24.63;;;16.48;;
55633;SDS011;41504;53.162;6.788;2023-04-08T12:37:58;25.38;;;16.73;;
55633;SDS011;41504;53.162;6.788;2023-04-08T12:40:23;26.75;;;18.75;;
55633;SDS011;41504;53.162;6.788;2023-04-08T12:42:49;28.10;;;18.33;;
55633;SDS011;41504;53.162;6.788;2023-04-08T12:45:15;26.33;;;18.20;;
55633;SDS011;41504;53.162;6.788;2023-04-08T12:47:40;23.88;;;17.98;;
55633;SDS011;41504;53.162;6.788;2023-04-08T12:50:06;25.88;;;18.30;;
55633;SDS011;41504;53.162;6.788;2023-04-08T12:52:33;27.80;;;18.40;;
55633;SDS011;41504;53.162;6.788;2023-04-08T12:54:59;24.48;;;18.20;;
55633;SDS011;41504;53.162;6.788;2023-04-08T12:57:25;24.67;;;18.63;;
55633;SDS011;41504;53.162;6.788;2023-04-08T12:59:52;29.80;;;20.58;;
55633;SDS011;41504;53.162;6.788;2023-04-08T13:02:18;25.10;;;18.52;;
55633;SDS011;41504;53.162;6.788;2023-04-08T13:04:43;28.25;;;19.75;;
55633;SDS011;41504;53.162;6.788;2023-04-08T13:07:09;26.88;;;19.33;;
55633;SDS011;41504;53.162;6.788;2023-04-08T13:09:36;28.52;;;19.83;;
55633;SDS011;41504;53.162;6.788;2023-04-08T13:12:02;26.73;;;19.50;;
55633;SDS011;41504;53.162;6.788;2023-04-08T13:14:28;26.35;;;19.83;;
55633;SDS011;41504;53.162;6.788;2023-04-08T13:16:53;28.35;;;20.30;;
55633;SDS011;41504;53.162;6.788;2023-04-08T13:19:19;29.55;;;20.58;;
55633;SDS011;41504;53.162;6.788;2023-04-08T13:21:45;28.23;;;20.48;;
55633;SDS011;41504;53.162;6.788;2023-04-08T13:24:10;28.50;;;20.95;;
55633;SDS011;41504;53.162;6.788;2023-04-08T13:26:36;29.33;;;21.95;;
55633;SDS011;41504;53.162;6.788;2023-04-08T13:29:02;31.92;;;22.88;;
55633;SDS011;41504;53.162;6.788;2023-04-08T13:31:28;31.98;;;22.98;;
55633;SDS011;41504;53.162;6.788;2023-04-08T13:33:53;29.98;;;21.85;;
55633;SDS011;41504;53.162;6.788;2023-04-08T13:36:19;29.63;;;22.65;;
55633;SDS011;41504;53.162;6.788;2023-04-08T13:38:45;29.25;;;23.17;;
55633;SDS011;41504;53.162;6.788;2023-04-08T13:41:10;31.65;;;24.52;;
55633;SDS011;41504;53.162;6.788;2023-04-08T13:43:36;31.40;;;24.13;;
55633;SDS011;41504;53.162;6.788;2023-04-08T13:46:02;30.10;;;23.73;;
55633;SDS011;41504;53.162;6.788;2023-04-08T13:48:27;31.25;;;23.50;;
55633;SDS011;41504;53.162;6.788;2023-04-08T13:50:53;33.53;;;24.52;;
55633;SDS011;41504;53.162;6.788;2023-04-08T13:53:19;32.25;;;24.42;;
55633;SDS011;41504;53.162;6.788;2023-04-08T13:55:45;31.75;;;25.08;;
55633;SDS011;41504;53.162;6.788;2023-04-08T13:58:10;34.38;;;25.58;;
55633;SDS011;41504;53.162;6.788;2023-04-08T14:00:36;33.28;;;25.35;;
55633;SDS011;41504;53.162;6.788;2023-04-08T14:03:02;32.67;;;25.88;;
55633;SDS011;41504;53.162;6.788;2023-04-08T14:05:28;31.30;;;26.15;;
55633;SDS011;41504;53.162;6.788;2023-04-08T14:07:53;31.13;;;25.25;;
55633;SDS011;41504;53.162;6.788;2023-04-08T14:10:19;32.47;;;25.52;;
55633;SDS011;41504;53.162;6.788;2023-04-08T14:12:45;32.83;;;26.30;;
55633;SDS011;41504;53.162;6.788;2023-04-08T14:15:11;33.10;;;26.52;;
55633;SDS011;41504;53.162;6.788;2023-04-08T14:17:36;39.65;;;29.52;;
55633;SDS011;41504;53.162;6.788;2023-04-08T14:20:02;36.95;;;29.77;;
55633;SDS011;41504;53.162;6.788;2023-04-08T14:22:30;41.65;;;31.95;;
55633;SDS011;41504;53.162;6.788;2023-04-08T14:24:56;42.05;;;33.60;;
55633;SDS011;41504;53.162;6.788;2023-04-08T14:27:21;40.55;;;32.33;;
55633;SDS011;41504;53.162;6.788;2023-04-08T14:29:47;40.25;;;33.17;;
55633;SDS011;41504;53.162;6.788;2023-04-08T14:32:13;43.95;;;33.83;;
55633;SDS011;41504;53.162;6.788;2023-04-08T14:34:38;45.97;;;35.33;;
55633;SDS011;41504;53.162;6.788;2023-04-08T14:37:04;48.13;;;36.22;;
55633;SDS011;41504;53.162;6.788;2023-04-08T14:39:30;45.80;;;35.72;;
55633;SDS011;41504;53.162;6.788;2023-04-08T14:41:56;46.20;;;36.47;;
55633;SDS011;41504;53.162;6.788;2023-04-08T14:44:22;46.13;;;36.58;;
55633;SDS011;41504;53.162;6.788;2023-04-08T14:46:48;48.65;;;37.08;;
55633;SDS011;41504;53.162;6.788;2023-04-08T14:49:14;47.72;;;36.80;;
55633;SDS011;41504;53.162;6.788;2023-04-08T14:51:40;50.30;;;39.58;;
55633;SDS011;41504;53.162;6.788;2023-04-08T14:54:06;48.45;;;38.00;;